Time;durP1;ratioP1;P1;durP2;ratioP2;P2;SDS_P1;SDS_P2;PMS_P1;PMS_P2;Temp;Humidity;BMP_temperature;BMP_pressure;BME280_temperature;BME280_humidity;BME280_pressure;Samples;Min_cycle;Max_cycle;Signal;HPM_P1;HPM_P2
2021/07/13 00:02:21;;;;;;;12.80;11.80;;;;;;;;;;5022653;28;20308;-59
2021/07/13 00:04:46;;;;;;;12.53;11.63;;;;;;;;;;5029492;28;20261;-59
2021/07/13 00:07:12;;;;;;;12.47;11.57;;;;;;;;;;5024919;28;20612;-57
2021/07/13 00:09:37;;;;;;;12.57;11.53;;;;;;;;;;5022166;28;20230;-58
2021/07/13 00:12:03;;;;;;;13.50;12.40;;;;;;;;;;5027750;28;20226;-59
2021/07/13 00:14:29;;;;;;;14.50;13.40;;;;;;;;;;5029086;28;20784;-58
2021/07/13 00:16:55;;;;;;;15.20;14.00;;;;;;;;;;5024985;28;20461;-58
2021/07/13 00:19:20;;;;;;;15.40;14.30;;;;;;;;;;5013598;28;20376;-60
2021/07/13 00:21:45;;;;;;;16.60;15.17;;;;;;;;;;5029385;28;20229;-59
2021/07/13 00:24:11;;;;;;;16.53;15.23;;;;;;;;;;5022498;28;20213;-58
2021/07/13 00:26:36;;;;;;;15.07;13.87;;;;;;;;;;5029538;28;20225;-59
2021/07/13 00:29:03;;;;;;;15.30;14.10;;;;;;;;;;5030226;28;20261;-59
2021/07/13 00:31:28;;;;;;;14.87;13.73;;;;;;;;;;5027716;28;20681;-59
2021/07/13 00:33:53;;;;;;;15.57;14.17;;;;;;;;;;5022095;28;20481;-58
2021/07/13 00:36:18;;;;;;;14.53;13.30;;;;;;;;;;5023684;28;20214;-58
2021/07/13 00:38:44;;;;;;;14.77;13.57;;;;;;;;;;5028521;28;20234;-60
2021/07/13 00:41:09;;;;;;;14.60;13.40;;;;;;;;;;5027492;28;20657;-58
2021/07/13 00:43:34;;;;;;;15.70;14.43;;;;;;;;;;5021651;28;20218;-59
2021/07/13 00:46:00;;;;;;;14.00;12.90;;;;;;;;;;5024105;28;20225;-58
2021/07/13 00:48:26;;;;;;;14.43;13.23;;;;;;;;;;5028529;28;20218;-58
2021/07/13 00:50:52;;;;;;;13.70;12.70;;;;;;;;;;5026763;28;20530;-58
2021/07/13 00:53:19;;;;;;;14.03;12.93;;;;;;;;;;5021758;28;20228;-58
2021/07/13 00:55:44;;;;;;;13.07;12.07;;;;;;;;;;5023697;28;20464;-58
2021/07/13 00:58:09;;;;;;;13.20;12.20;;;;;;;;;;5029720;28;20824;-58
2021/07/13 01:00:35;;;;;;;15.57;14.30;;;;;;;;;;5027413;28;20229;-59
2021/07/13 01:03:02;;;;;;;13.77;12.77;;;;;;;;;;5021751;28;20658;-58
2021/07/13 01:05:34;;;;;;;13.10;12.10;;;;;;;;;;5023105;28;20316;-57
2021/07/13 01:08:13;;;;;;;14.97;13.67;;;;;;;;;;5027578;28;20922;-59
2021/07/13 01:10:44;;;;;;;14.00;12.97;;;;;;;;;;5010260;28;20460;-59
2021/07/13 01:13:17;;;;;;;14.10;13.07;;;;;;;;;;5008987;28;20475;-58
2021/07/13 01:15:47;;;;;;;13.53;12.43;;;;;;;;;;5021089;28;20462;-57
2021/07/13 01:18:18;;;;;;;14.60;13.50;;;;;;;;;;5013788;28;20530;-58
2021/07/13 01:20:55;;;;;;;13.97;12.70;;;;;;;;;;5021095;28;20469;-58
2021/07/13 01:23:27;;;;;;;15.20;14.10;;;;;;;;;;5023024;28;20453;-58
2021/07/13 01:26:02;;;;;;;13.83;12.80;;;;;;;;;;5042710;28;20449;-58
2021/07/13 01:28:29;;;;;;;12.70;11.80;;;;;;;;;;5028059;28;20480;-59
2021/07/13 01:31:01;;;;;;;14.63;13.37;;;;;;;;;;5021733;28;20457;-59
2021/07/13 01:33:27;;;;;;;15.57;14.07;;;;;;;;;;5021259;28;20536;-59
2021/07/13 01:36:08;;;;;;;14.30;13.20;;;;;;;;;;5024771;28;20537;-60
2021/07/13 01:38:40;;;;;;;14.03;13.03;;;;;;;;;;5016922;28;20973;-59
2021/07/13 01:41:10;;;;;;;14.70;13.50;;;;;;;;;;5023487;28;20539;-58
2021/07/13 01:43:37;;;;;;;15.37;14.17;;;;;;;;;;4996623;28;20485;-59
2021/07/13 01:46:03;;;;;;;14.40;13.30;;;;;;;;;;5025397;28;20485;-59
2021/07/13 01:48:30;;;;;;;15.90;14.60;;;;;;;;;;5020755;28;20797;-59
2021/07/13 01:50:56;;;;;;;15.70;14.40;;;;;;;;;;5014685;28;20222;-58
2021/07/13 01:53:23;;;;;;;16.27;15.07;;;;;;;;;;5030102;28;20460;-59
2021/07/13 01:55:48;;;;;;;16.60;15.20;;;;;;;;;;5022812;28;20226;-59
2021/07/13 01:58:15;;;;;;;15.40;14.20;;;;;;;;;;5028101;28;20465;-58
2021/07/13 02:00:42;;;;;;;15.83;14.60;;;;;;;;;;5024983;28;20222;-59
2021/07/13 02:03:08;;;;;;;15.80;14.50;;;;;;;;;;5020588;28;20464;-58
2021/07/13 02:05:34;;;;;;;15.97;14.40;;;;;;;;;;5022413;28;20476;-59
2021/07/13 02:08:03;;;;;;;17.13;15.50;;;;;;;;;;5026595;28;20466;-59
2021/07/13 02:10:29;;;;;;;14.87;13.70;;;;;;;;;;5023839;28;20477;-58
2021/07/13 02:12:54;;;;;;;14.77;13.67;;;;;;;;;;5020024;28;20459;-58
2021/07/13 02:15:20;;;;;;;16.03;14.73;;;;;;;;;;5021703;28;20227;-59
2021/07/13 02:17:49;;;;;;;14.47;13.30;;;;;;;;;;5018831;28;20306;-59
2021/07/13 02:20:15;;;;;;;15.33;14.23;;;;;;;;;;5014327;28;20662;-58
2021/07/13 02:22:40;;;;;;;14.60;13.50;;;;;;;;;;5026751;28;20469;-59
2021/07/13 02:25:07;;;;;;;14.30;13.20;;;;;;;;;;5027196;28;20283;-59
2021/07/13 02:27:33;;;;;;;15.77;14.40;;;;;;;;;;5028052;28;20230;-58
2021/07/13 02:30:00;;;;;;;15.60;14.40;;;;;;;;;;5035863;28;20508;-59
2021/07/13 02:32:32;;;;;;;14.93;13.77;;;;;;;;;;5026188;28;20557;-59
2021/07/13 02:34:59;;;;;;;15.50;14.20;;;;;;;;;;5026752;28;20912;-59
2021/07/13 02:37:25;;;;;;;14.37;13.17;;;;;;;;;;5019845;28;20472;-59
2021/07/13 02:39:51;;;;;;;14.80;13.50;;;;;;;;;;5019811;28;20474;-59
2021/07/13 02:42:17;;;;;;;14.67;13.37;;;;;;;;;;5026770;28;20535;-59
2021/07/13 02:44:43;;;;;;;14.87;13.77;;;;;;;;;;5026461;28;20228;-59
2021/07/13 02:47:13;;;;;;;13.97;12.87;;;;;;;;;;5019860;28;20460;-58
2021/07/13 02:49:46;;;;;;;14.53;13.43;;;;;;;;;;5019712;28;20262;-58
2021/07/13 02:52:14;;;;;;;14.97;13.77;;;;;;;;;;5024194;28;20810;-59
2021/07/13 02:54:40;;;;;;;14.57;13.47;;;;;;;;;;5014507;28;20462;-58
2021/07/13 02:57:07;;;;;;;13.93;12.83;;;;;;;;;;5023834;28;20461;-58
2021/07/13 02:59:33;;;;;;;14.23;13.03;;;;;;;;;;5007572;28;20234;-58
2021/07/13 03:01:59;;;;;;;15.83;14.50;;;;;;;;;;5023320;28;20454;-59
2021/07/13 03:04:24;;;;;;;15.50;14.30;;;;;;;;;;5025859;28;20551;-59
2021/07/13 03:06:50;;;;;;;14.47;13.27;;;;;;;;;;5022080;28;20830;-59
2021/07/13 03:09:15;;;;;;;14.90;13.80;;;;;;;;;;5019853;28;20238;-59
2021/07/13 03:11:40;;;;;;;13.63;12.47;;;;;;;;;;5024664;28;20313;-59
2021/07/13 03:14:08;;;;;;;13.80;12.60;;;;;;;;;;5025912;28;20232;-58
2021/07/13 03:16:35;;;;;;;14.90;13.80;;;;;;;;;;5022107;28;20222;-58
2021/07/13 03:19:00;;;;;;;15.13;13.77;;;;;;;;;;5006425;28;20769;-58
2021/07/13 03:21:29;;;;;;;14.03;12.87;;;;;;;;;;5028197;28;20464;-58
2021/07/13 03:23:59;;;;;;;14.13;12.93;;;;;;;;;;5022286;28;20210;-58
2021/07/13 03:26:27;;;;;;;15.30;13.90;;;;;;;;;;5030160;28;20469;-58
2021/07/13 03:28:54;;;;;;;13.73;12.63;;;;;;;;;;5030847;28;20465;-59
2021/07/13 03:31:19;;;;;;;14.97;13.63;;;;;;;;;;5027222;28;20940;-59
2021/07/13 03:33:45;;;;;;;16.93;15.63;;;;;;;;;;5021859;28;20522;-58
2021/07/13 03:36:10;;;;;;;15.73;14.43;;;;;;;;;;5025071;28;20230;-59
2021/07/13 03:38:35;;;;;;;15.40;14.10;;;;;;;;;;5030276;28;20631;-59
2021/07/13 03:41:01;;;;;;;15.23;14.03;;;;;;;;;;5026965;28;20233;-58
2021/07/13 03:43:27;;;;;;;14.93;13.80;;;;;;;;;;5022516;28;20304;-58
2021/07/13 03:45:55;;;;;;;16.47;15.10;;;;;;;;;;5024686;28;20226;-58
2021/07/13 03:48:21;;;;;;;15.70;14.30;;;;;;;;;;5029971;28;20792;-58
2021/07/13 03:50:47;;;;;;;15.20;13.90;;;;;;;;;;5026340;28;20473;-59
2021/07/13 03:53:13;;;;;;;14.43;13.37;;;;;;;;;;5023132;28;20851;-59
2021/07/13 03:55:38;;;;;;;15.13;13.90;;;;;;;;;;5036370;28;20612;-60
2021/07/13 03:58:03;;;;;;;17.20;15.50;;;;;;;;;;5018355;28;20465;-58
2021/07/13 04:00:29;;;;;;;16.07;14.67;;;;;;;;;;5027185;28;20238;-57
2021/07/13 04:02:55;;;;;;;15.60;14.17;;;;;;;;;;5022428;28;20230;-59
2021/07/13 04:05:20;;;;;;;18.40;15.50;;;;;;;;;;5025477;28;20265;-58
2021/07/13 04:07:46;;;;;;;16.00;14.70;;;;;;;;;;5029151;28;20541;-59
2021/07/13 04:10:12;;;;;;;16.67;15.27;;;;;;;;;;5025818;28;20295;-58
2021/07/13 04:12:38;;;;;;;15.27;14.07;;;;;;;;;;5022685;28;20221;-58
2021/07/13 04:15:05;;;;;;;14.50;13.40;;;;;;;;;;5025251;28;20862;-59
2021/07/13 04:17:30;;;;;;;14.83;13.73;;;;;;;;;;5024808;28;20223;-57
2021/07/13 04:19:55;;;;;;;14.90;13.73;;;;;;;;;;5013055;28;20473;-59
2021/07/13 04:22:20;;;;;;;14.80;13.60;;;;;;;;;;5029529;28;20349;-57
2021/07/13 04:24:46;;;;;;;16.70;14.83;;;;;;;;;;5025794;28;20304;-59
2021/07/13 04:27:11;;;;;;;16.93;15.43;;;;;;;;;;5022295;28;20236;-58
2021/07/13 04:29:36;;;;;;;16.23;14.63;;;;;;;;;;5025709;28;20234;-58
2021/07/13 04:32:02;;;;;;;17.27;14.30;;;;;;;;;;5027934;28;20554;-58
2021/07/13 04:34:27;;;;;;;15.93;14.33;;;;;;;;;;5025543;28;20232;-58
2021/07/13 04:36:52;;;;;;;15.47;13.97;;;;;;;;;;5020788;28;20635;-59
2021/07/13 04:39:18;;;;;;;14.70;13.50;;;;;;;;;;5026218;28;20643;-58
2021/07/13 04:41:43;;;;;;;14.67;13.47;;;;;;;;;;5028684;28;20241;-57
2021/07/13 04:44:08;;;;;;;14.70;13.50;;;;;;;;;;5024866;28;20526;-58
2021/07/13 04:46:33;;;;;;;15.33;14.00;;;;;;;;;;5022034;28;20330;-58
2021/07/13 04:48:59;;;;;;;13.17;12.13;;;;;;;;;;5026156;28;20289;-58
2021/07/13 04:51:24;;;;;;;14.67;13.60;;;;;;;;;;5028738;28;20243;-59
2021/07/13 04:53:50;;;;;;;13.93;12.83;;;;;;;;;;5023603;28;20218;-57
2021/07/13 04:56:15;;;;;;;14.77;13.47;;;;;;;;;;5033439;28;20261;-57
2021/07/13 04:58:41;;;;;;;15.67;13.80;;;;;;;;;;5015273;28;20654;-58
2021/07/13 05:01:06;;;;;;;12.73;11.73;;;;;;;;;;5028324;28;20534;-58
2021/07/13 05:03:31;;;;;;;14.30;13.30;;;;;;;;;;5023464;28;20218;-57
2021/07/13 05:05:57;;;;;;;14.00;12.90;;;;;;;;;;5020678;28;20222;-57
2021/07/13 05:08:22;;;;;;;13.83;12.70;;;;;;;;;;5027387;28;20693;-59
2021/07/13 05:10:49;;;;;;;11.53;10.73;;;;;;;;;;5027977;28;20234;-58
2021/07/13 05:13:14;;;;;;;14.37;13.00;;;;;;;;;;5022711;28;20299;-58
2021/07/13 05:15:39;;;;;;;13.40;12.27;;;;;;;;;;5021722;28;20462;-58
2021/07/13 05:18:11;;;;;;;11.30;10.50;;;;;;;;;;5016305;28;20222;-59
2021/07/13 05:20:40;;;;;;;14.10;11.93;;;;;;;;;;5020688;28;20230;-58
2021/07/13 05:23:07;;;;;;;12.37;11.37;;;;;;;;;;5024485;28;20461;-58
2021/07/13 05:25:33;;;;;;;11.90;10.80;;;;;;;;;;5028285;28;20466;-59
2021/07/13 05:27:59;;;;;;;12.23;11.30;;;;;;;;;;5032469;28;20468;-59
2021/07/13 05:30:25;;;;;;;13.00;11.70;;;;;;;;;;5020119;28;20999;-58
2021/07/13 05:32:52;;;;;;;12.33;11.23;;;;;;;;;;5024364;28;20570;-59
2021/07/13 05:35:17;;;;;;;12.83;11.53;;;;;;;;;;5027924;28;20492;-58
2021/07/13 05:37:42;;;;;;;12.23;11.23;;;;;;;;;;5024669;28;20848;-58
2021/07/13 05:40:08;;;;;;;12.33;11.13;;;;;;;;;;5020794;28;20612;-59
2021/07/13 05:42:33;;;;;;;13.23;12.13;;;;;;;;;;5024613;28;20234;-58
2021/07/13 05:45:00;;;;;;;12.63;11.73;;;;;;;;;;5025572;28;20237;-59
2021/07/13 05:47:25;;;;;;;11.10;10.20;;;;;;;;;;5024465;28;20559;-57
2021/07/13 05:49:51;;;;;;;12.10;10.90;;;;;;;;;;5020265;28;20490;-58
2021/07/13 05:52:16;;;;;;;12.23;11.20;;;;;;;;;;5024584;28;20238;-58
2021/07/13 05:54:42;;;;;;;12.33;11.27;;;;;;;;;;5018290;28;20610;-59
2021/07/13 05:57:07;;;;;;;11.03;10.03;;;;;;;;;;5024212;28;20630;-58
2021/07/13 05:59:32;;;;;;;12.90;11.57;;;;;;;;;;5015431;28;20324;-58
2021/07/13 06:01:57;;;;;;;12.30;11.20;;;;;;;;;;5024418;28;20242;-58
2021/07/13 06:04:23;;;;;;;11.60;10.47;;;;;;;;;;5027614;28;20241;-58
2021/07/13 06:06:48;;;;;;;11.13;10.03;;;;;;;;;;5022889;28;20249;-59
2021/07/13 06:09:13;;;;;;;10.90;10.00;;;;;;;;;;5020439;28;20245;-58
2021/07/13 06:11:39;;;;;;;12.40;11.40;;;;;;;;;;5025073;28;20234;-58
2021/07/13 06:14:04;;;;;;;11.00;10.20;;;;;;;;;;5027046;28;20256;-59
2021/07/13 06:16:29;;;;;;;11.10;10.10;;;;;;;;;;5022964;28;20689;-58
2021/07/13 06:18:54;;;;;;;11.47;10.47;;;;;;;;;;5007063;28;20230;-58
2021/07/13 06:21:20;;;;;;;11.67;10.57;;;;;;;;;;5025740;28;20313;-57
2021/07/13 06:23:45;;;;;;;11.70;10.70;;;;;;;;;;5020160;28;20219;-58
2021/07/13 06:26:10;;;;;;;12.13;10.97;;;;;;;;;;5027743;28;20367;-59
2021/07/13 06:28:35;;;;;;;11.00;10.10;;;;;;;;;;5031660;28;20226;-58
2021/07/13 06:31:01;;;;;;;12.53;11.27;;;;;;;;;;5021900;28;20313;-58
2021/07/13 06:33:26;;;;;;;11.00;9.97;;;;;;;;;;5020235;28;20222;-58
2021/07/13 06:35:51;;;;;;;10.80;9.77;;;;;;;;;;5025195;28;20222;-58
2021/07/13 06:38:17;;;;;;;11.50;10.33;;;;;;;;;;5026892;28;20236;-58
2021/07/13 06:40:42;;;;;;;11.43;10.47;;;;;;;;;;5021687;28;20229;-58
2021/07/13 06:43:07;;;;;;;9.80;8.70;;;;;;;;;;5019879;28;20234;-58
2021/07/13 06:45:32;;;;;;;11.43;9.50;;;;;;;;;;5025808;28;20226;-58
2021/07/13 06:47:58;;;;;;;9.40;8.60;;;;;;;;;;5026766;28;20645;-58
2021/07/13 06:50:24;;;;;;;9.17;8.20;;;;;;;;;;5021333;28;20233;-58
2021/07/13 06:52:50;;;;;;;10.40;9.40;;;;;;;;;;5019388;28;20222;-59
2021/07/13 06:55:16;;;;;;;10.00;9.20;;;;;;;;;;5033908;28;21029;-58
2021/07/13 06:57:41;;;;;;;9.87;9.00;;;;;;;;;;5022303;28;20461;-58
2021/07/13 07:00:08;;;;;;;11.43;10.33;;;;;;;;;;5024342;28;20252;-58
2021/07/13 07:02:33;;;;;;;11.00;10.10;;;;;;;;;;5024174;28;20222;-58
2021/07/13 07:04:59;;;;;;;10.47;9.40;;;;;;;;;;5030016;28;20979;-58
2021/07/13 07:07:24;;;;;;;9.20;8.03;;;;;;;;;;5030748;28;20308;-58
2021/07/13 07:09:49;;;;;;;10.50;8.80;;;;;;;;;;5024016;28;20295;-59
2021/07/13 07:12:14;;;;;;;9.70;8.90;;;;;;;;;;5023390;28;20936;-58
2021/07/13 07:14:40;;;;;;;10.47;9.20;;;;;;;;;;5030548;28;20231;-59
2021/07/13 07:17:05;;;;;;;9.83;8.93;;;;;;;;;;5028131;28;20226;-58
2021/07/13 07:19:30;;;;;;;8.30;7.60;;;;;;;;;;5011639;28;20236;-58
2021/07/13 07:21:55;;;;;;;8.27;7.60;;;;;;;;;;5030071;28;20641;-59
2021/07/13 07:24:21;;;;;;;7.37;6.67;;;;;;;;;;5024368;28;20232;-58
2021/07/13 07:26:46;;;;;;;8.50;7.70;;;;;;;;;;5023766;28;20253;-58
2021/07/13 07:29:11;;;;;;;8.80;7.90;;;;;;;;;;5029544;28;20254;-58
2021/07/13 07:31:37;;;;;;;8.53;7.83;;;;;;;;;;5030319;28;20226;-59
2021/07/13 07:34:02;;;;;;;8.73;7.30;;;;;;;;;;5023622;28;20240;-59
2021/07/13 07:36:27;;;;;;;8.57;7.67;;;;;;;;;;5023443;28;20246;-59
2021/07/13 07:38:53;;;;;;;8.13;7.53;;;;;;;;;;5030754;28;20306;-58
2021/07/13 07:41:20;;;;;;;8.97;8.10;;;;;;;;;;5029009;28;20574;-58
2021/07/13 07:43:46;;;;;;;10.03;8.63;;;;;;;;;;5023514;28;20471;-58
2021/07/13 07:46:12;;;;;;;8.03;7.23;;;;;;;;;;5023985;28;20462;-59
2021/07/13 07:48:37;;;;;;;9.00;8.10;;;;;;;;;;5033349;28;20453;-59
2021/07/13 07:51:02;;;;;;;8.00;7.33;;;;;;;;;;5023896;28;20569;-58
2021/07/13 07:53:27;;;;;;;8.43;7.83;;;;;;;;;;5035281;28;20222;-58
2021/07/13 07:55:54;;;;;;;7.87;7.07;;;;;;;;;;5024268;28;20646;-59
2021/07/13 07:58:20;;;;;;;7.50;6.90;;;;;;;;;;5031970;28;20222;-59
2021/07/13 08:00:46;;;;;;;8.07;7.27;;;;;;;;;;5028785;28;20541;-58
2021/07/13 08:03:12;;;;;;;11.43;10.43;;;;;;;;;;5020909;28;20619;-58
2021/07/13 08:05:37;;;;;;;10.87;9.97;;;;;;;;;;5026220;28;20461;-58
2021/07/13 08:08:03;;;;;;;12.40;9.90;;;;;;;;;;5021437;28;20225;-58
2021/07/13 08:10:28;;;;;;;9.90;9.00;;;;;;;;;;5030211;28;20248;-58
2021/07/13 08:12:53;;;;;;;7.70;7.10;;;;;;;;;;5030766;28;20642;-59
2021/07/13 08:15:18;;;;;;;9.10;8.33;;;;;;;;;;5024961;28;20307;-58
2021/07/13 08:17:45;;;;;;;8.20;7.50;;;;;;;;;;5016085;28;20218;-58
2021/07/13 08:20:13;;;;;;;9.07;8.37;;;;;;;;;;5019125;28;20792;-58
2021/07/13 08:22:39;;;;;;;8.23;7.50;;;;;;;;;;5026923;28;20466;-60
2021/07/13 08:25:05;;;;;;;7.80;7.07;;;;;;;;;;5028740;28;20480;-58
2021/07/13 08:27:30;;;;;;;7.97;7.37;;;;;;;;;;5024191;28;20480;-58
2021/07/13 08:29:56;;;;;;;16.60;14.93;;;;;;;;;;5027635;28;20476;-60
2021/07/13 08:32:22;;;;;;;29.53;26.57;;;;;;;;;;5022361;28;20305;-58
2021/07/13 08:34:47;;;;;;;18.37;16.67;;;;;;;;;;5024015;28;20604;-59
2021/07/13 08:37:21;;;;;;;15.33;14.03;;;;;;;;;;5021434;28;20232;-61
2021/07/13 08:39:47;;;;;;;14.37;12.97;;;;;;;;;;5022942;28;20544;-58
2021/07/13 08:42:12;;;;;;;41.00;36.70;;;;;;;;;;5027779;28;20557;-67
2021/07/13 08:44:37;;;;;;;15.50;14.00;;;;;;;;;;5027472;28;20830;-68
2021/07/13 08:47:03;;;;;;;11.23;9.53;;;;;;;;;;5028949;28;20226;-67
2021/07/13 08:49:29;;;;;;;13.90;12.50;;;;;;;;;;5027654;28;20230;-67
2021/07/13 08:51:54;;;;;;;13.00;11.83;;;;;;;;;;5022164;28;20480;-67
2021/07/13 08:54:19;;;;;;;17.37;15.70;;;;;;;;;;5034583;28;20242;-65
2021/07/13 08:56:45;;;;;;;52.73;47.40;;;;;;;;;;5021850;28;20218;-66
2021/07/13 08:59:10;;;;;;;30.33;27.53;;;;;;;;;;5022233;28;20304;-65
2021/07/13 09:01:35;;;;;;;22.37;20.23;;;;;;;;;;5004234;28;20226;-65
2021/07/13 09:04:06;;;;;;;17.17;15.53;;;;;;;;;;5026590;28;20234;-63
2021/07/13 09:06:54;;;;;;;34.27;30.70;;;;;;;;;;5021800;28;20653;-65
2021/07/13 09:09:26;;;;;;;20.00;16.17;;;;;;;;;;5021027;28;20508;-66
2021/07/13 09:12:28;;;;;;;43.13;39.00;;;;;;;;;;5006111;28;20499;-67
2021/07/13 09:14:59;;;;;;;30.97;27.77;;;;;;;;;;5020680;28;20466;-67
2021/07/13 09:17:38;;;;;;;12.20;11.00;;;;;;;;;;5018888;28;20817;-66
2021/07/13 09:20:16;;;;;;;24.97;22.57;;;;;;;;;;5020717;28;20628;-65
2021/07/13 09:22:58;;;;;;;49.40;44.63;;;;;;;;;;5021292;28;20950;-67
2021/07/13 09:25:27;;;;;;;47.27;42.87;;;;;;;;;;5031769;28;20986;-66
2021/07/13 09:28:23;;;;;;;14.30;13.00;;;;;;;;;;5031654;28;20807;-68
2021/07/13 09:30:57;;;;;;;86.30;78.23;;;;;;;;;;5016575;28;20477;-66
2021/07/13 09:33:27;;;;;;;8.97;8.27;;;;;;;;;;5013079;28;20536;-66
2021/07/13 09:36:11;;;;;;;16.17;14.60;;;;;;;;;;5021638;28;20483;-65
2021/07/13 09:38:55;;;;;;;18.53;16.70;;;;;;;;;;5021210;28;20532;-65
2021/07/13 09:41:25;;;;;;;17.10;15.43;;;;;;;;;;5021483;28;20481;-65
2021/07/13 09:43:53;;;;;;;7.97;7.27;;;;;;;;;;5008326;28;20481;-67
2021/07/13 09:46:38;;;;;;;16.57;12.77;;;;;;;;;;5021204;28;20546;-66
2021/07/13 09:49:15;;;;;;;7.60;6.90;;;;;;;;;;5024462;28;20542;-66
2021/07/13 09:51:43;;;;;;;19.17;17.27;;;;;;;;;;5027678;28;20449;-67
2021/07/13 09:54:27;;;;;;;21.60;19.30;;;;;;;;;;5025252;28;20475;-67
2021/07/13 09:56:52;;;;;;;39.87;36.20;;;;;;;;;;5007502;28;20696;-66
2021/07/13 09:59:17;;;;;;;14.07;12.77;;;;;;;;;;5021647;28;20806;-67
2021/07/13 10:01:42;;;;;;;39.33;35.47;;;;;;;;;;5027392;28;20225;-67
2021/07/13 10:04:08;;;;;;;50.93;46.03;;;;;;;;;;5027089;28;20569;-67
2021/07/13 10:06:33;;;;;;;17.23;15.40;;;;;;;;;;5020696;28;20288;-67
2021/07/13 10:08:59;;;;;;;11.07;8.97;;;;;;;;;;5020568;28;20218;-66
2021/07/13 10:11:28;;;;;;;9.67;6.17;;;;;;;;;;5027257;28;20226;-65
2021/07/13 10:13:56;;;;;;;48.87;44.17;;;;;;;;;;5027249;28;20479;-67
2021/07/13 10:16:21;;;;;;;52.50;47.30;;;;;;;;;;5020500;28;20469;-65
2021/07/13 10:18:47;;;;;;;56.50;51.30;;;;;;;;;;5032923;28;20917;-66
2021/07/13 10:21:12;;;;;;;41.50;37.60;;;;;;;;;;5026314;28;20241;-66
2021/07/13 10:23:37;;;;;;;40.13;36.10;;;;;;;;;;5020586;28;20233;-66
2021/07/13 10:26:03;;;;;;;23.43;21.33;;;;;;;;;;5026283;28;20233;-65
2021/07/13 10:28:33;;;;;;;11.00;10.00;;;;;;;;;;5027458;28;20221;-67
2021/07/13 10:30:59;;;;;;;34.07;30.47;;;;;;;;;;5020318;28;20366;-64
2021/07/13 10:33:31;;;;;;;9.03;8.10;;;;;;;;;;5020676;28;20560;-66
2021/07/13 10:36:29;;;;;;;29.37;26.43;;;;;;;;;;5024490;28;20650;-66
2021/07/13 10:39:26;;;;;;;20.70;18.83;;;;;;;;;;5026626;28;20477;-66
2021/07/13 10:41:52;;;;;;;37.13;33.57;;;;;;;;;;5026683;28;20512;-66
2021/07/13 10:44:39;;;;;;;22.13;20.20;;;;;;;;;;5024585;28;20469;-66
2021/07/13 10:47:27;;;;;;;40.73;37.07;;;;;;;;;;5020369;28;20217;-67
2021/07/13 10:50:27;;;;;;;26.70;24.20;;;;;;;;;;5018714;28;20565;-66
2021/07/13 10:52:58;;;;;;;18.77;17.03;;;;;;;;;;4979064;28;20979;-66
2021/07/13 10:55:35;;;;;;;13.00;11.83;;;;;;;;;;5017700;28;20465;-67
2021/07/13 10:58:19;;;;;;;30.23;27.23;;;;;;;;;;5027107;28;20459;-66
2021/07/13 11:00:48;;;;;;;15.13;13.93;;;;;;;;;;5020929;28;20552;-67
2021/07/13 11:03:31;;;;;;;27.53;25.03;;;;;;;;;;5026827;28;20466;-66
2021/07/13 11:05:59;;;;;;;23.23;21.17;;;;;;;;;;5026304;28;20536;-67
2021/07/13 11:08:49;;;;;;;27.53;25.10;;;;;;;;;;5022400;28;20484;-66
2021/07/13 11:11:14;;;;;;;18.63;17.03;;;;;;;;;;5013436;28;20944;-67
2021/07/13 11:13:40;;;;;;;12.57;10.90;;;;;;;;;;5013734;28;20472;-67
2021/07/13 11:16:05;;;;;;;21.90;20.00;;;;;;;;;;5029304;28;20214;-67
2021/07/13 11:18:35;;;;;;;14.73;13.43;;;;;;;;;;5033675;28;20221;-66
2021/07/13 11:21:22;;;;;;;9.17;8.30;;;;;;;;;;5026356;28;20308;-65
2021/07/13 11:23:50;;;;;;;17.27;15.67;;;;;;;;;;5020085;28;20445;-67
2021/07/13 11:26:17;;;;;;;14.70;13.40;;;;;;;;;;5027091;28;20473;-66
2021/07/13 11:28:49;;;;;;;19.83;17.83;;;;;;;;;;5030073;28;20481;-67
2021/07/13 11:31:19;;;;;;;16.37;14.70;;;;;;;;;;5022568;28;20461;-66
2021/07/13 11:34:11;;;;;;;16.70;15.00;;;;;;;;;;5019988;28;20457;-66
2021/07/13 11:36:48;;;;;;;13.70;12.50;;;;;;;;;;5015208;28;20544;-66
2021/07/13 11:39:19;;;;;;;14.63;13.17;;;;;;;;;;5024241;28;20463;-66
2021/07/13 11:41:46;;;;;;;6.90;6.20;;;;;;;;;;5026533;28;20790;-67
2021/07/13 11:44:11;;;;;;;16.17;12.73;;;;;;;;;;5014709;28;20583;-67
2021/07/13 11:46:41;;;;;;;13.23;12.10;;;;;;;;;;5021562;28;20453;-67
2021/07/13 11:49:12;;;;;;;10.67;9.53;;;;;;;;;;5030013;28;20217;-66
2021/07/13 11:51:43;;;;;;;12.47;10.80;;;;;;;;;;5020224;28;20787;-66
2021/07/13 11:54:13;;;;;;;10.83;10.00;;;;;;;;;;5019619;28;20516;-67
2021/07/13 11:56:40;;;;;;;12.80;9.90;;;;;;;;;;5022115;28;20473;-66
2021/07/13 11:59:06;;;;;;;11.30;10.30;;;;;;;;;;5032011;28;20794;-68
2021/07/13 12:01:33;;;;;;;6.80;6.30;;;;;;;;;;5018130;28;20465;-68
2021/07/13 12:04:09;;;;;;;8.83;8.00;;;;;;;;;;5016630;28;20228;-68
2021/07/13 12:06:37;;;;;;;9.27;8.40;;;;;;;;;;5012215;28;20452;-65
2021/07/13 12:09:08;;;;;;;7.10;6.60;;;;;;;;;;5019358;28;20464;-66
2021/07/13 12:11:34;;;;;;;5.30;4.90;;;;;;;;;;5017412;28;20544;-67
2021/07/13 12:14:02;;;;;;;5.30;4.80;;;;;;;;;;5030477;28;20452;-67
2021/07/13 12:16:29;;;;;;;5.03;4.63;;;;;;;;;;5018310;28;20465;-66
2021/07/13 12:18:56;;;;;;;6.57;6.07;;;;;;;;;;5017825;28;20457;-68
2021/07/13 12:21:22;;;;;;;7.50;6.90;;;;;;;;;;5026714;28;20472;-67
2021/07/13 12:23:50;;;;;;;7.63;7.03;;;;;;;;;;5021256;28;20792;-67
2021/07/13 12:26:34;;;;;;;7.40;6.80;;;;;;;;;;5016089;28;21562;-68
2021/07/13 12:29:10;;;;;;;7.67;7.03;;;;;;;;;;5021633;28;20511;-67
2021/07/13 12:31:44;;;;;;;7.27;5.63;;;;;;;;;;5022679;28;20786;-66
2021/07/13 12:34:17;;;;;;;7.30;6.70;;;;;;;;;;5017563;28;20463;-67
2021/07/13 12:36:43;;;;;;;10.83;6.53;;;;;;;;;;5022554;28;20933;-67
2021/07/13 12:39:21;;;;;;;9.07;7.00;;;;;;;;;;5026591;28;20462;-66
2021/07/13 12:41:57;;;;;;;7.80;6.83;;;;;;;;;;5028183;28;20559;-65
2021/07/13 12:44:43;;;;;;;9.50;8.70;;;;;;;;;;5028154;28;20469;-66
2021/07/13 12:47:18;;;;;;;11.60;7.97;;;;;;;;;;5011946;28;20938;-66
2021/07/13 12:49:57;;;;;;;10.40;8.50;;;;;;;;;;5021877;28;20851;-67
2021/07/13 12:52:30;;;;;;;12.07;7.53;;;;;;;;;;5024864;28;20797;-67
2021/07/13 12:55:06;;;;;;;10.97;7.10;;;;;;;;;;5029368;28;20538;-66
2021/07/13 12:57:37;;;;;;;11.13;6.93;;;;;;;;;;5026571;28;20829;-66
2021/07/13 13:00:07;;;;;;;7.53;6.93;;;;;;;;;;5010936;28;20528;-67
2021/07/13 13:02:33;;;;;;;7.13;6.43;;;;;;;;;;5022626;28;20472;-66
2021/07/13 13:04:58;;;;;;;6.80;6.17;;;;;;;;;;5035777;28;20947;-67
2021/07/13 13:07:24;;;;;;;7.90;6.43;;;;;;;;;;5023990;28;20432;-68
2021/07/13 13:09:50;;;;;;;8.23;6.00;;;;;;;;;;5030753;28;20234;-67
2021/07/13 13:12:16;;;;;;;6.70;6.20;;;;;;;;;;5031490;28;20712;-68
2021/07/13 13:14:45;;;;;;;6.80;6.23;;;;;;;;;;5023774;28;20296;-67
2021/07/13 13:17:12;;;;;;;7.30;6.80;;;;;;;;;;5033510;28;20252;-68
2021/07/13 13:19:39;;;;;;;6.40;5.90;;;;;;;;;;5035255;28;20550;-66
2021/07/13 13:22:05;;;;;;;6.80;6.30;;;;;;;;;;5030620;28;20570;-66
2021/07/13 13:24:30;;;;;;;7.73;7.13;;;;;;;;;;5026062;28;20460;-67
2021/07/13 13:26:55;;;;;;;7.30;6.60;;;;;;;;;;5023974;28;20275;-67
2021/07/13 13:29:20;;;;;;;8.15;6.25;;;;;;;;;;5029391;28;20230;-68
2021/07/13 13:31:46;;;;;;;6.82;6.22;;;;;;;;;;5031792;28;20561;-67
2021/07/13 13:34:11;;;;;;;6.53;6.03;;;;;;;;;;5026377;28;20308;-68
2021/07/13 13:36:43;;;;;;;5.80;5.40;;;;;;;;;;5022860;28;20224;-68
2021/07/13 13:41:34;;;;;;;5.47;5.00;;;;;;;;;;5016973;28;20215;-66
2021/07/13 13:43:59;;;;;;;5.97;5.43;;;;;;;;;;5034003;28;20320;-67
2021/07/13 13:46:24;;;;;;;5.20;4.90;;;;;;;;;;5021472;28;20297;-68
2021/07/13 13:48:50;;;;;;;6.18;5.78;;;;;;;;;;5032109;28;20228;-66
2021/07/13 13:51:15;;;;;;;7.05;6.65;;;;;;;;;;5024032;28;20694;-67
2021/07/13 13:53:42;;;;;;;5.95;5.45;;;;;;;;;;5031877;28;20217;-67
2021/07/13 13:56:10;;;;;;;6.00;5.50;;;;;;;;;;5031423;28;20213;-67
2021/07/13 13:58:36;;;;;;;5.10;4.80;;;;;;;;;;5018874;28;20222;-67
2021/07/13 14:01:04;;;;;;;5.50;5.10;;;;;;;;;;5019008;28;21293;-67
2021/07/13 14:03:30;;;;;;;5.93;5.47;;;;;;;;;;5023663;28;20814;-67
2021/07/13 14:05:55;;;;;;;5.87;5.47;;;;;;;;;;5023662;28;20480;-68
2021/07/13 14:08:20;;;;;;;6.77;6.10;;;;;;;;;;5022651;28;20222;-67
2021/07/13 14:10:45;;;;;;;7.03;6.43;;;;;;;;;;5019810;28;20236;-66
2021/07/13 14:13:11;;;;;;;6.90;6.23;;;;;;;;;;5021688;28;20234;-67
2021/07/13 14:15:36;;;;;;;6.30;5.90;;;;;;;;;;5022945;28;20550;-66
2021/07/13 14:18:02;;;;;;;6.23;5.83;;;;;;;;;;5014979;28;20225;-67
2021/07/13 14:20:27;;;;;;;6.67;6.10;;;;;;;;;;5016164;28;20546;-67
2021/07/13 14:22:52;;;;;;;16.83;15.73;;;;;;;;;;5025737;28;20642;-66
2021/07/13 14:25:18;;;;;;;11.70;10.80;;;;;;;;;;5014488;28;20233;-66
2021/07/13 14:27:44;;;;;;;6.67;6.27;;;;;;;;;;5022498;28;20263;-67
2021/07/13 14:30:12;;;;;;;8.60;8.00;;;;;;;;;;5020591;28;20572;-67
2021/07/13 14:32:38;;;;;;;6.93;6.37;;;;;;;;;;5024933;28;20469;-67